NCAR-RAP Real-Time Weather Data

Output produced by METARs form (19 June 2019  11:50 UTC)
found at http://weather.rap.ucar.edu/surface/
 
KMDT 191111Z 13004KT 8SM OVC009 22/21 A2983 RMK AO2 CIG 005V010 T02220206
KMDT 191056Z 13003KT 9SM OVC010 22/21 A2983 RMK AO2 CIG 005V011 SLP099 T02170206
KMDT 191039Z 13003KT 10SM SCT004 OVC011 22/21 A2983 RMK AO2 T02170206
KMDT 191017Z 12003KT 10SM BKN004 OVC095 22/21 A2983 RMK AO2 CIG 003V008 T02170206
KMDT 190956Z 09003KT 10SM SCT004 BKN007 OVC095 22/20 A2983 RMK AO2 SLP101 T02170200
KMDT 190947Z 12003KT 10SM SCT004 BKN055 BKN095 22/20 A2983 RMK AO2 T02170200
KMDT 190941Z 12003KT 10SM BKN004 BKN008 OVC055 22/20 A2984 RMK AO2 T02170200
KMDT 190856Z 03003KT 10SM BKN007 OVC060 22/21 A2983 RMK AO2 SLP101 60005 T02170206 58011
KMDT 190756Z 00000KT 10SM BKN006 BKN047 OVC065 22/20 A2985 RMK AO2 RAE16 SLP105 P0002 T02170200
KMDT 190720Z 11003KT 10SM SCT006 BKN047 OVC065 22/20 A2985 RMK AO2 RAE16 P0002 T02170200
KMDT 190656Z 21004KT 5SM RA BR SCT041 BKN050 OVC070 22/20 A2986 RMK AO2 RAB39 SLP110 P0003 T02170200
KMDT 190556Z 14003KT 10SM BKN037 BKN050 OVC110 23/19 A2987 RMK AO2 SLP112 60000 T02280194 10244 20228 58003
KMDT 190456Z VRB04KT 10SM BKN050 OVC070 23/19 A2987 RMK AO2 SLP113 T02330194 402830206
KMDT 190356Z 21006KT 10SM FEW029 SCT037 OVC060 23/19 A2988 RMK AO2 RAB39E51 SLP116 P0000 T02330194
KMDT 190256Z 00000KT 10SM BKN075 OVC120 23/19 A2988 RMK AO2 SLP115 T02330194 53002
KMDT 190156Z 30003KT 10SM SCT060 OVC120 24/19 A2988 RMK AO2 SLP115 T02390194
KMDT 190056Z 26003KT 10SM SCT090 BKN150 24/20 A2987 RMK AO2 SLP113 T02390200
KMDT 182356Z 23006KT 10SM SCT090 OVC150 24/20 A2987 RMK AO2 SLP114 60000 T02440200 10283 20244 53007
KMDT 182256Z 27005KT 10SM BKN036 OVC110 26/19 A2986 RMK AO2 RAE40 SLP109 P0000 T02610194
KMDT 182156Z 31010KT 10SM -RA SCT040 OVC110 27/19 A2985 RMK AO2 RAB42 SLP105 P0000 T02670189
KMDT 182056Z 30008KT 10SM SCT040 BKN055 OVC150 27/19 A2985 RMK AO2 SLP107 T02720194 56004
KMDT 181956Z 29009KT 10SM FEW040 BKN055 28/20 A2985 RMK AO2 SLP107 T02780200
KMDT 181856Z 26010G18KT 10SM FEW044 BKN055 27/19 A2986 RMK AO2 SLP108 T02720194
KMDT 181756Z 24007KT 210V280 10SM BKN045 OVC055 27/20 A2987 RMK AO2 RAB15E24 SLP111 P0000 60000 T02670200 10272 20222 58014
KMDT 181656Z 23007KT 3SM SCT046 BKN055 27/21 A2987 RMK AO2 SFC VIS 10 SLP114 T02670206
KMDT 181556Z 00000KT 3SM HZ FEW019 SCT033 SCT120 OVC150 25/22 A2990 RMK AO2 SFC VIS 4 SLP124 T02500217
KMDT 181511Z 00000KT 3SM HZ SCT013 SCT055 25/22 A2991 RMK AO2 SFC VIS 4 T02500217
KMDT 181456Z 19003KT 3SM HZ BKN011 BKN055 24/22 A2991 RMK AO2 SFC VIS 4 SLP126 T02440217 58007
KMDT 181440Z 00000KT 3SM BR OVC010 24/22 A2991 RMK AO2 T02390217
KMDT 181356Z 00000KT 2 1/2SM BR OVC009 23/21 A2992 RMK AO2 TWR VIS 3 CIG 007V012 SLP129 T02330211